Terminal Aerodrome Forecast
Issued by NWS Memphis, TN

Current Version | Previous Version | Text Only | Print | Product List | Glossary On
Versions: 1 2 3 4 5 6 7 8 9 10 11 12 13 14 15 16 17 18
000
FTUS44 KMEG 010521
TAFJBR
TAF
KJBR 010521Z 0106/0206 VRB02KT P6SM SCT250
     FM011500 25005KT P6SM VCTS BKN040CB BKN250
     FM011900 26006KT P6SM -TSRA BKN050CB OVC250
     FM020000 VRB03KT P6SM VCSH SCT120 OVC250
     FM020400 VRB03KT P6SM SCT050 BKN250=

USA.gov is the U.S. government's official web portal to all federal, state and local government web resources and services.